sensor_id;sensor_type;location;lat;lon;timestamp;P1;durP1;ratioP1;P2;durP2;ratioP2
67776;SDS011;54576;52.020;5.536;2024-01-30T00:01:17;13.88;;;8.23;;
67776;SDS011;54576;52.020;5.536;2024-01-30T00:03:42;10.55;;;7.55;;
67776;SDS011;54576;52.020;5.536;2024-01-30T00:06:08;13.70;;;8.48;;
67776;SDS011;54576;52.020;5.536;2024-01-30T00:08:34;11.57;;;8.43;;
67776;SDS011;54576;52.020;5.536;2024-01-30T00:10:59;12.20;;;8.25;;
67776;SDS011;54576;52.020;5.536;2024-01-30T00:13:25;15.48;;;8.18;;
67776;SDS011;54576;52.020;5.536;2024-01-30T00:15:51;13.90;;;8.25;;
67776;SDS011;54576;52.020;5.536;2024-01-30T00:18:17;12.90;;;8.65;;
67776;SDS011;54576;52.020;5.536;2024-01-30T00:20:43;13.68;;;8.68;;
67776;SDS011;54576;52.020;5.536;2024-01-30T00:23:09;14.38;;;8.57;;
67776;SDS011;54576;52.020;5.536;2024-01-30T00:25:34;13.65;;;8.40;;
67776;SDS011;54576;52.020;5.536;2024-01-30T00:28:00;14.80;;;8.32;;
67776;SDS011;54576;52.020;5.536;2024-01-30T00:30:26;15.35;;;8.68;;
67776;SDS011;54576;52.020;5.536;2024-01-30T00:32:51;14.48;;;8.23;;
67776;SDS011;54576;52.020;5.536;2024-01-30T00:35:17;13.85;;;8.55;;
67776;SDS011;54576;52.020;5.536;2024-01-30T00:37:42;15.43;;;8.50;;
67776;SDS011;54576;52.020;5.536;2024-01-30T00:40:08;14.65;;;8.90;;
67776;SDS011;54576;52.020;5.536;2024-01-30T00:42:40;16.85;;;8.15;;
67776;SDS011;54576;52.020;5.536;2024-01-30T00:45:15;19.50;;;8.93;;
67776;SDS011;54576;52.020;5.536;2024-01-30T00:47:41;12.80;;;8.13;;
67776;SDS011;54576;52.020;5.536;2024-01-30T00:50:07;14.27;;;7.28;;
67776;SDS011;54576;52.020;5.536;2024-01-30T00:52:33;10.82;;;7.20;;
67776;SDS011;54576;52.020;5.536;2024-01-30T00:54:59;11.68;;;7.80;;
67776;SDS011;54576;52.020;5.536;2024-01-30T00:57:25;12.07;;;8.07;;
67776;SDS011;54576;52.020;5.536;2024-01-30T00:59:50;10.35;;;7.10;;
67776;SDS011;54576;52.020;5.536;2024-01-30T01:02:16;11.27;;;7.97;;
67776;SDS011;54576;52.020;5.536;2024-01-30T01:04:44;12.05;;;7.55;;
67776;SDS011;54576;52.020;5.536;2024-01-30T01:07:10;10.45;;;6.93;;
67776;SDS011;54576;52.020;5.536;2024-01-30T01:09:36;13.75;;;7.55;;
67776;SDS011;54576;52.020;5.536;2024-01-30T01:12:02;14.18;;;7.97;;
67776;SDS011;54576;52.020;5.536;2024-01-30T01:14:29;10.27;;;7.28;;
67776;SDS011;54576;52.020;5.536;2024-01-30T01:16:54;9.95;;;7.47;;
67776;SDS011;54576;52.020;5.536;2024-01-30T01:19:20;15.35;;;8.38;;
67776;SDS011;54576;52.020;5.536;2024-01-30T01:21:46;12.50;;;7.78;;
67776;SDS011;54576;52.020;5.536;2024-01-30T01:24:12;15.90;;;8.50;;
67776;SDS011;54576;52.020;5.536;2024-01-30T01:26:40;14.00;;;8.40;;
67776;SDS011;54576;52.020;5.536;2024-01-30T01:29:06;12.27;;;7.70;;
67776;SDS011;54576;52.020;5.536;2024-01-30T01:31:36;16.08;;;8.23;;
67776;SDS011;54576;52.020;5.536;2024-01-30T01:34:12;13.85;;;8.25;;
67776;SDS011;54576;52.020;5.536;2024-01-30T01:36:38;12.63;;;8.38;;
67776;SDS011;54576;52.020;5.536;2024-01-30T01:39:04;10.25;;;7.65;;
67776;SDS011;54576;52.020;5.536;2024-01-30T01:41:32;11.75;;;7.57;;
67776;SDS011;54576;52.020;5.536;2024-01-30T01:43:59;17.08;;;9.07;;
67776;SDS011;54576;52.020;5.536;2024-01-30T01:46:29;15.75;;;8.40;;
67776;SDS011;54576;52.020;5.536;2024-01-30T01:48:57;16.88;;;8.77;;
67776;SDS011;54576;52.020;5.536;2024-01-30T01:51:24;11.43;;;8.32;;
67776;SDS011;54576;52.020;5.536;2024-01-30T01:53:50;13.40;;;7.93;;
67776;SDS011;54576;52.020;5.536;2024-01-30T01:56:16;20.35;;;9.80;;
67776;SDS011;54576;52.020;5.536;2024-01-30T01:58:41;14.20;;;8.82;;
67776;SDS011;54576;52.020;5.536;2024-01-30T02:03:37;15.32;;;7.82;;
67776;SDS011;54576;52.020;5.536;2024-01-30T02:06:03;12.68;;;8.27;;
67776;SDS011;54576;52.020;5.536;2024-01-30T02:08:29;12.45;;;7.80;;
67776;SDS011;54576;52.020;5.536;2024-01-30T02:10:54;12.48;;;7.75;;
67776;SDS011;54576;52.020;5.536;2024-01-30T02:13:21;13.38;;;8.18;;
67776;SDS011;54576;52.020;5.536;2024-01-30T02:15:50;13.43;;;8.63;;
67776;SDS011;54576;52.020;5.536;2024-01-30T02:18:16;14.18;;;8.60;;
67776;SDS011;54576;52.020;5.536;2024-01-30T02:20:42;14.13;;;8.80;;
67776;SDS011;54576;52.020;5.536;2024-01-30T02:23:09;17.00;;;8.70;;
67776;SDS011;54576;52.020;5.536;2024-01-30T02:25:38;17.17;;;9.23;;
67776;SDS011;54576;52.020;5.536;2024-01-30T02:28:14;12.88;;;9.20;;
67776;SDS011;54576;52.020;5.536;2024-01-30T02:30:40;17.27;;;8.85;;
67776;SDS011;54576;52.020;5.536;2024-01-30T02:33:07;15.32;;;9.63;;
67776;SDS011;54576;52.020;5.536;2024-01-30T02:35:33;21.48;;;9.30;;
67776;SDS011;54576;52.020;5.536;2024-01-30T02:37:59;17.65;;;8.77;;
67776;SDS011;54576;52.020;5.536;2024-01-30T02:40:24;13.98;;;8.75;;
67776;SDS011;54576;52.020;5.536;2024-01-30T02:42:50;16.77;;;8.02;;
67776;SDS011;54576;52.020;5.536;2024-01-30T02:45:16;10.13;;;8.27;;
67776;SDS011;54576;52.020;5.536;2024-01-30T02:47:42;14.73;;;8.00;;
67776;SDS011;54576;52.020;5.536;2024-01-30T02:50:07;13.18;;;8.45;;
67776;SDS011;54576;52.020;5.536;2024-01-30T02:52:33;14.25;;;7.63;;
67776;SDS011;54576;52.020;5.536;2024-01-30T02:54:59;13.40;;;8.25;;
67776;SDS011;54576;52.020;5.536;2024-01-30T02:57:24;10.38;;;7.82;;
67776;SDS011;54576;52.020;5.536;2024-01-30T02:59:50;14.23;;;8.20;;
67776;SDS011;54576;52.020;5.536;2024-01-30T03:02:16;14.60;;;8.27;;
67776;SDS011;54576;52.020;5.536;2024-01-30T03:04:42;15.90;;;8.18;;
67776;SDS011;54576;52.020;5.536;2024-01-30T03:07:08;14.48;;;8.20;;
67776;SDS011;54576;52.020;5.536;2024-01-30T03:09:34;12.30;;;7.93;;
67776;SDS011;54576;52.020;5.536;2024-01-30T03:12:00;14.68;;;8.20;;
67776;SDS011;54576;52.020;5.536;2024-01-30T03:14:26;20.35;;;8.85;;
67776;SDS011;54576;52.020;5.536;2024-01-30T03:16:51;10.63;;;8.63;;
67776;SDS011;54576;52.020;5.536;2024-01-30T03:19:17;11.75;;;8.50;;
67776;SDS011;54576;52.020;5.536;2024-01-30T03:21:43;14.93;;;8.77;;
67776;SDS011;54576;52.020;5.536;2024-01-30T03:24:09;13.40;;;9.00;;
67776;SDS011;54576;52.020;5.536;2024-01-30T03:26:34;16.10;;;8.82;;
67776;SDS011;54576;52.020;5.536;2024-01-30T03:29:00;14.38;;;9.05;;
67776;SDS011;54576;52.020;5.536;2024-01-30T03:31:26;14.63;;;8.90;;
67776;SDS011;54576;52.020;5.536;2024-01-30T03:33:52;17.10;;;8.57;;
67776;SDS011;54576;52.020;5.536;2024-01-30T03:36:17;18.77;;;9.68;;
67776;SDS011;54576;52.020;5.536;2024-01-30T03:38:43;17.85;;;8.55;;
67776;SDS011;54576;52.020;5.536;2024-01-30T03:41:09;12.40;;;8.32;;
67776;SDS011;54576;52.020;5.536;2024-01-30T03:43:35;16.83;;;8.63;;
67776;SDS011;54576;52.020;5.536;2024-01-30T03:46:01;14.73;;;8.80;;
67776;SDS011;54576;52.020;5.536;2024-01-30T03:48:27;18.58;;;9.10;;
67776;SDS011;54576;52.020;5.536;2024-01-30T03:50:53;13.15;;;8.57;;
67776;SDS011;54576;52.020;5.536;2024-01-30T03:53:19;22.15;;;8.50;;
67776;SDS011;54576;52.020;5.536;2024-01-30T03:55:44;27.63;;;8.15;;
67776;SDS011;54576;52.020;5.536;2024-01-30T03:58:10;15.13;;;8.52;;
67776;SDS011;54576;52.020;5.536;2024-01-30T04:00:35;12.68;;;7.82;;
67776;SDS011;54576;52.020;5.536;2024-01-30T04:03:01;18.50;;;9.10;;
67776;SDS011;54576;52.020;5.536;2024-01-30T04:05:26;14.02;;;8.35;;
67776;SDS011;54576;52.020;5.536;2024-01-30T04:07:52;12.63;;;8.00;;
67776;SDS011;54576;52.020;5.536;2024-01-30T04:10:18;13.23;;;8.45;;
67776;SDS011;54576;52.020;5.536;2024-01-30T04:12:43;13.65;;;6.72;;
67776;SDS011;54576;52.020;5.536;2024-01-30T04:15:09;16.05;;;8.05;;
67776;SDS011;54576;52.020;5.536;2024-01-30T04:17:34;16.05;;;7.97;;
67776;SDS011;54576;52.020;5.536;2024-01-30T04:20:00;9.52;;;6.72;;
67776;SDS011;54576;52.020;5.536;2024-01-30T04:22:25;15.90;;;7.30;;
67776;SDS011;54576;52.020;5.536;2024-01-30T04:24:51;11.02;;;6.72;;
67776;SDS011;54576;52.020;5.536;2024-01-30T04:27:16;13.77;;;6.95;;
67776;SDS011;54576;52.020;5.536;2024-01-30T04:29:42;9.23;;;5.90;;
67776;SDS011;54576;52.020;5.536;2024-01-30T04:32:08;9.18;;;6.40;;
67776;SDS011;54576;52.020;5.536;2024-01-30T04:34:35;13.65;;;7.15;;
67776;SDS011;54576;52.020;5.536;2024-01-30T04:37:01;7.82;;;6.55;;
67776;SDS011;54576;52.020;5.536;2024-01-30T04:39:27;18.15;;;7.28;;
67776;SDS011;54576;52.020;5.536;2024-01-30T04:41:53;12.73;;;6.47;;
67776;SDS011;54576;52.020;5.536;2024-01-30T04:44:19;12.40;;;6.53;;
67776;SDS011;54576;52.020;5.536;2024-01-30T04:46:44;13.73;;;6.18;;
67776;SDS011;54576;52.020;5.536;2024-01-30T04:49:10;15.15;;;7.60;;
67776;SDS011;54576;52.020;5.536;2024-01-30T04:51:36;10.45;;;6.65;;
67776;SDS011;54576;52.020;5.536;2024-01-30T04:54:01;14.80;;;8.07;;
67776;SDS011;54576;52.020;5.536;2024-01-30T04:56:27;18.25;;;7.28;;
67776;SDS011;54576;52.020;5.536;2024-01-30T04:58:53;18.08;;;8.38;;
67776;SDS011;54576;52.020;5.536;2024-01-30T05:01:18;15.70;;;8.18;;
67776;SDS011;54576;52.020;5.536;2024-01-30T05:03:44;11.75;;;7.05;;
67776;SDS011;54576;52.020;5.536;2024-01-30T05:06:10;10.07;;;6.20;;
67776;SDS011;54576;52.020;5.536;2024-01-30T05:08:35;12.02;;;6.88;;
67776;SDS011;54576;52.020;5.536;2024-01-30T05:11:06;8.60;;;6.65;;
67776;SDS011;54576;52.020;5.536;2024-01-30T05:13:32;10.00;;;6.07;;
67776;SDS011;54576;52.020;5.536;2024-01-30T05:15:58;10.73;;;6.40;;
67776;SDS011;54576;52.020;5.536;2024-01-30T05:18:24;8.82;;;6.25;;
67776;SDS011;54576;52.020;5.536;2024-01-30T05:20:50;15.70;;;6.65;;
67776;SDS011;54576;52.020;5.536;2024-01-30T05:23:15;16.52;;;6.10;;
67776;SDS011;54576;52.020;5.536;2024-01-30T05:25:41;10.63;;;6.35;;
67776;SDS011;54576;52.020;5.536;2024-01-30T05:28:07;11.65;;;6.10;;
67776;SDS011;54576;52.020;5.536;2024-01-30T05:30:32;8.15;;;5.95;;
67776;SDS011;54576;52.020;5.536;2024-01-30T05:32:58;10.70;;;5.63;;
67776;SDS011;54576;52.020;5.536;2024-01-30T05:35:24;10.98;;;5.88;;
67776;SDS011;54576;52.020;5.536;2024-01-30T05:37:50;10.30;;;6.35;;
67776;SDS011;54576;52.020;5.536;2024-01-30T05:40:16;14.13;;;6.30;;
67776;SDS011;54576;52.020;5.536;2024-01-30T05:42:42;10.15;;;6.55;;
67776;SDS011;54576;52.020;5.536;2024-01-30T05:45:07;10.35;;;6.10;;
67776;SDS011;54576;52.020;5.536;2024-01-30T05:47:33;9.95;;;6.28;;
67776;SDS011;54576;52.020;5.536;2024-01-30T05:50:02;7.82;;;6.75;;
67776;SDS011;54576;52.020;5.536;2024-01-30T05:52:28;10.98;;;6.75;;
67776;SDS011;54576;52.020;5.536;2024-01-30T05:54:53;11.77;;;6.30;;
67776;SDS011;54576;52.020;5.536;2024-01-30T05:57:19;8.30;;;6.10;;
67776;SDS011;54576;52.020;5.536;2024-01-30T05:59:45;19.52;;;6.88;;
67776;SDS011;54576;52.020;5.536;2024-01-30T06:02:12;14.40;;;6.40;;
67776;SDS011;54576;52.020;5.536;2024-01-30T06:04:38;14.70;;;6.90;;
67776;SDS011;54576;52.020;5.536;2024-01-30T06:07:04;13.75;;;6.38;;
67776;SDS011;54576;52.020;5.536;2024-01-30T06:09:31;10.35;;;6.18;;
67776;SDS011;54576;52.020;5.536;2024-01-30T06:11:57;7.95;;;5.95;;
67776;SDS011;54576;52.020;5.536;2024-01-30T06:14:23;19.25;;;6.25;;
67776;SDS011;54576;52.020;5.536;2024-01-30T06:16:48;10.07;;;6.07;;
67776;SDS011;54576;52.020;5.536;2024-01-30T06:19:14;14.40;;;6.50;;
67776;SDS011;54576;52.020;5.536;2024-01-30T06:21:40;11.52;;;6.10;;
67776;SDS011;54576;52.020;5.536;2024-01-30T06:24:06;9.98;;;5.90;;
67776;SDS011;54576;52.020;5.536;2024-01-30T06:26:31;14.43;;;6.90;;
67776;SDS011;54576;52.020;5.536;2024-01-30T06:28:57;13.05;;;6.53;;
67776;SDS011;54576;52.020;5.536;2024-01-30T06:31:22;15.23;;;6.13;;
67776;SDS011;54576;52.020;5.536;2024-01-30T06:33:48;10.60;;;5.90;;
67776;SDS011;54576;52.020;5.536;2024-01-30T06:36:14;14.05;;;6.00;;
67776;SDS011;54576;52.020;5.536;2024-01-30T06:38:40;9.30;;;5.60;;
67776;SDS011;54576;52.020;5.536;2024-01-30T06:41:06;12.35;;;6.03;;
67776;SDS011;54576;52.020;5.536;2024-01-30T06:43:32;12.18;;;5.47;;
67776;SDS011;54576;52.020;5.536;2024-01-30T06:45:57;7.57;;;5.93;;
67776;SDS011;54576;52.020;5.536;2024-01-30T06:48:23;13.32;;;6.05;;
67776;SDS011;54576;52.020;5.536;2024-01-30T06:50:48;11.63;;;5.78;;
67776;SDS011;54576;52.020;5.536;2024-01-30T06:53:15;10.95;;;5.60;;
67776;SDS011;54576;52.020;5.536;2024-01-30T06:55:41;12.73;;;5.97;;
67776;SDS011;54576;52.020;5.536;2024-01-30T06:58:06;10.15;;;5.90;;
67776;SDS011;54576;52.020;5.536;2024-01-30T07:00:32;12.90;;;5.53;;
67776;SDS011;54576;52.020;5.536;2024-01-30T07:02:57;14.95;;;5.47;;
67776;SDS011;54576;52.020;5.536;2024-01-30T07:05:23;12.43;;;5.38;;
67776;SDS011;54576;52.020;5.536;2024-01-30T07:07:48;16.60;;;5.82;;
67776;SDS011;54576;52.020;5.536;2024-01-30T07:10:14;11.55;;;6.18;;
67776;SDS011;54576;52.020;5.536;2024-01-30T07:12:39;9.77;;;5.78;;
67776;SDS011;54576;52.020;5.536;2024-01-30T07:15:05;13.77;;;6.25;;
67776;SDS011;54576;52.020;5.536;2024-01-30T07:17:34;16.67;;;6.32;;
67776;SDS011;54576;52.020;5.536;2024-01-30T07:20:00;20.60;;;11.77;;
67776;SDS011;54576;52.020;5.536;2024-01-30T07:22:26;10.07;;;5.95;;
67776;SDS011;54576;52.020;5.536;2024-01-30T07:24:51;12.63;;;6.07;;
67776;SDS011;54576;52.020;5.536;2024-01-30T07:27:17;14.75;;;6.40;;
67776;SDS011;54576;52.020;5.536;2024-01-30T07:29:43;9.43;;;5.72;;
67776;SDS011;54576;52.020;5.536;2024-01-30T07:32:08;10.50;;;5.88;;
67776;SDS011;54576;52.020;5.536;2024-01-30T07:34:34;9.13;;;5.47;;
67776;SDS011;54576;52.020;5.536;2024-01-30T07:37:01;11.82;;;5.85;;
67776;SDS011;54576;52.020;5.536;2024-01-30T07:39:26;12.93;;;6.00;;
67776;SDS011;54576;52.020;5.536;2024-01-30T07:41:53;13.40;;;5.53;;
67776;SDS011;54576;52.020;5.536;2024-01-30T07:44:18;10.35;;;6.18;;
67776;SDS011;54576;52.020;5.536;2024-01-30T07:46:45;8.13;;;6.40;;
67776;SDS011;54576;52.020;5.536;2024-01-30T07:49:10;8.93;;;5.95;;
67776;SDS011;54576;52.020;5.536;2024-01-30T07:51:36;12.80;;;5.15;;
67776;SDS011;54576;52.020;5.536;2024-01-30T07:54:02;12.50;;;5.65;;
67776;SDS011;54576;52.020;5.536;2024-01-30T07:56:27;12.35;;;6.40;;
67776;SDS011;54576;52.020;5.536;2024-01-30T07:58:56;11.88;;;6.10;;
67776;SDS011;54576;52.020;5.536;2024-01-30T08:01:31;8.02;;;5.20;;
67776;SDS011;54576;52.020;5.536;2024-01-30T08:03:56;17.10;;;6.75;;
67776;SDS011;54576;52.020;5.536;2024-01-30T08:06:22;9.77;;;5.93;;
67776;SDS011;54576;52.020;5.536;2024-01-30T08:08:47;13.32;;;6.05;;
67776;SDS011;54576;52.020;5.536;2024-01-30T08:11:13;8.23;;;5.50;;
67776;SDS011;54576;52.020;5.536;2024-01-30T08:13:38;11.63;;;5.13;;
67776;SDS011;54576;52.020;5.536;2024-01-30T08:16:04;9.38;;;5.68;;
67776;SDS011;54576;52.020;5.536;2024-01-30T08:18:30;9.43;;;5.70;;
67776;SDS011;54576;52.020;5.536;2024-01-30T08:20:55;8.07;;;5.35;;
67776;SDS011;54576;52.020;5.536;2024-01-30T08:23:21;16.67;;;6.05;;
67776;SDS011;54576;52.020;5.536;2024-01-30T08:25:47;8.52;;;5.38;;
67776;SDS011;54576;52.020;5.536;2024-01-30T08:28:12;9.48;;;5.70;;
67776;SDS011;54576;52.020;5.536;2024-01-30T08:30:38;8.07;;;5.32;;
67776;SDS011;54576;52.020;5.536;2024-01-30T08:33:04;8.13;;;5.82;;
67776;SDS011;54576;52.020;5.536;2024-01-30T08:35:30;8.05;;;5.65;;
67776;SDS011;54576;52.020;5.536;2024-01-30T08:37:58;16.33;;;6.53;;
67776;SDS011;54576;52.020;5.536;2024-01-30T08:40:24;9.00;;;5.70;;
67776;SDS011;54576;52.020;5.536;2024-01-30T08:42:50;10.68;;;5.80;;
67776;SDS011;54576;52.020;5.536;2024-01-30T08:45:15;15.98;;;6.20;;
67776;SDS011;54576;52.020;5.536;2024-01-30T08:47:44;9.55;;;5.75;;
67776;SDS011;54576;52.020;5.536;2024-01-30T08:50:12;8.53;;;6.07;;
67776;SDS011;54576;52.020;5.536;2024-01-30T08:52:38;9.63;;;6.20;;
67776;SDS011;54576;52.020;5.536;2024-01-30T08:55:03;12.57;;;6.30;;
67776;SDS011;54576;52.020;5.536;2024-01-30T08:57:32;11.23;;;5.82;;
67776;SDS011;54576;52.020;5.536;2024-01-30T08:59:57;10.55;;;6.05;;
67776;SDS011;54576;52.020;5.536;2024-01-30T09:02:23;12.30;;;6.28;;
67776;SDS011;54576;52.020;5.536;2024-01-30T09:04:49;13.38;;;5.90;;
67776;SDS011;54576;52.020;5.536;2024-01-30T09:07:14;11.77;;;5.63;;
67776;SDS011;54576;52.020;5.536;2024-01-30T09:09:40;8.40;;;5.45;;
67776;SDS011;54576;52.020;5.536;2024-01-30T09:12:06;13.27;;;6.15;;
67776;SDS011;54576;52.020;5.536;2024-01-30T09:14:34;11.10;;;6.03;;
67776;SDS011;54576;52.020;5.536;2024-01-30T09:17:00;9.27;;;5.68;;
67776;SDS011;54576;52.020;5.536;2024-01-30T09:19:28;11.73;;;5.95;;
67776;SDS011;54576;52.020;5.536;2024-01-30T09:21:53;15.25;;;6.18;;
67776;SDS011;54576;52.020;5.536;2024-01-30T09:24:19;11.45;;;6.20;;
67776;SDS011;54576;52.020;5.536;2024-01-30T09:26:44;13.30;;;6.15;;
67776;SDS011;54576;52.020;5.536;2024-01-30T09:29:10;13.60;;;6.05;;
67776;SDS011;54576;52.020;5.536;2024-01-30T09:31:36;10.10;;;6.30;;
67776;SDS011;54576;52.020;5.536;2024-01-30T09:34:01;15.98;;;6.03;;
67776;SDS011;54576;52.020;5.536;2024-01-30T09:36:27;11.55;;;6.07;;
67776;SDS011;54576;52.020;5.536;2024-01-30T09:38:53;7.15;;;5.28;;
67776;SDS011;54576;52.020;5.536;2024-01-30T09:41:18;16.65;;;7.03;;
67776;SDS011;54576;52.020;5.536;2024-01-30T09:43:47;16.92;;;6.88;;
67776;SDS011;54576;52.020;5.536;2024-01-30T09:46:14;20.67;;;7.00;;
67776;SDS011;54576;52.020;5.536;2024-01-30T09:48:41;14.18;;;6.60;;
67776;SDS011;54576;52.020;5.536;2024-01-30T09:51:08;15.75;;;7.03;;
67776;SDS011;54576;52.020;5.536;2024-01-30T09:53:35;17.52;;;6.88;;
67776;SDS011;54576;52.020;5.536;2024-01-30T09:56:02;12.75;;;6.30;;
67776;SDS011;54576;52.020;5.536;2024-01-30T09:58:28;16.33;;;7.45;;
67776;SDS011;54576;52.020;5.536;2024-01-30T10:00:53;12.70;;;6.13;;
67776;SDS011;54576;52.020;5.536;2024-01-30T10:03:19;19.67;;;6.05;;
67776;SDS011;54576;52.020;5.536;2024-01-30T10:05:48;11.98;;;6.90;;
67776;SDS011;54576;52.020;5.536;2024-01-30T10:08:17;14.95;;;6.30;;
67776;SDS011;54576;52.020;5.536;2024-01-30T10:10:46;20.42;;;6.78;;
67776;SDS011;54576;52.020;5.536;2024-01-30T10:13:12;11.52;;;5.70;;
67776;SDS011;54576;52.020;5.536;2024-01-30T10:15:38;13.85;;;5.85;;
67776;SDS011;54576;52.020;5.536;2024-01-30T10:18:04;18.25;;;6.22;;
67776;SDS011;54576;52.020;5.536;2024-01-30T10:20:31;13.52;;;5.95;;
67776;SDS011;54576;52.020;5.536;2024-01-30T10:22:57;10.90;;;5.85;;
67776;SDS011;54576;52.020;5.536;2024-01-30T10:25:23;11.07;;;4.97;;
67776;SDS011;54576;52.020;5.536;2024-01-30T10:27:53;14.85;;;5.00;;
67776;SDS011;54576;52.020;5.536;2024-01-30T10:30:23;10.18;;;5.80;;
67776;SDS011;54576;52.020;5.536;2024-01-30T10:32:49;16.65;;;5.00;;
67776;SDS011;54576;52.020;5.536;2024-01-30T10:35:15;12.15;;;5.03;;
67776;SDS011;54576;52.020;5.536;2024-01-30T10:37:43;11.77;;;5.05;;
67776;SDS011;54576;52.020;5.536;2024-01-30T10:40:09;17.00;;;5.65;;
67776;SDS011;54576;52.020;5.536;2024-01-30T10:47:37;10.07;;;4.85;;
67776;SDS011;54576;52.020;5.536;2024-01-30T10:50:05;13.35;;;4.82;;
67776;SDS011;54576;52.020;5.536;2024-01-30T10:52:32;12.70;;;5.15;;
67776;SDS011;54576;52.020;5.536;2024-01-30T10:54:58;13.40;;;4.45;;
67776;SDS011;54576;52.020;5.536;2024-01-30T10:57:25;10.13;;;4.75;;
67776;SDS011;54576;52.020;5.536;2024-01-30T10:59:52;31.25;;;15.27;;
67776;SDS011;54576;52.020;5.536;2024-01-30T11:02:21;13.32;;;5.95;;
67776;SDS011;54576;52.020;5.536;2024-01-30T11:04:48;14.60;;;5.25;;
67776;SDS011;54576;52.020;5.536;2024-01-30T11:07:17;14.55;;;5.20;;
67776;SDS011;54576;52.020;5.536;2024-01-30T11:12:26;15.02;;;4.88;;
67776;SDS011;54576;52.020;5.536;2024-01-30T11:15:08;12.00;;;4.50;;
67776;SDS011;54576;52.020;5.536;2024-01-30T11:22:56;9.93;;;3.60;;
67776;SDS011;54576;52.020;5.536;2024-01-30T11:25:23;10.15;;;3.80;;
67776;SDS011;54576;52.020;5.536;2024-01-30T11:27:49;9.60;;;3.72;;
67776;SDS011;54576;52.020;5.536;2024-01-30T11:30:27;7.32;;;3.65;;
67776;SDS011;54576;52.020;5.536;2024-01-30T11:33:05;8.68;;;3.30;;
67776;SDS011;54576;52.020;5.536;2024-01-30T11:35:38;9.07;;;2.90;;
67776;SDS011;54576;52.020;5.536;2024-01-30T11:38:05;13.85;;;3.85;;
67776;SDS011;54576;52.020;5.536;2024-01-30T11:40:31;9.85;;;2.92;;
67776;SDS011;54576;52.020;5.536;2024-01-30T11:42:58;8.73;;;2.83;;
67776;SDS011;54576;52.020;5.536;2024-01-30T11:45:26;3.70;;;2.22;;
67776;SDS011;54576;52.020;5.536;2024-01-30T11:47:52;9.55;;;2.83;;
67776;SDS011;54576;52.020;5.536;2024-01-30T11:50:18;3.58;;;2.40;;
67776;SDS011;54576;52.020;5.536;2024-01-30T11:52:44;5.47;;;1.73;;
67776;SDS011;54576;52.020;5.536;2024-01-30T11:55:10;3.63;;;1.73;;
67776;SDS011;54576;52.020;5.536;2024-01-30T11:57:35;7.32;;;2.13;;
67776;SDS011;54576;52.020;5.536;2024-01-30T12:00:04;8.13;;;2.80;;
67776;SDS011;54576;52.020;5.536;2024-01-30T12:02:38;8.27;;;2.92;;
67776;SDS011;54576;52.020;5.536;2024-01-30T12:05:04;12.43;;;2.80;;
67776;SDS011;54576;52.020;5.536;2024-01-30T12:07:34;7.80;;;2.20;;
67776;SDS011;54576;52.020;5.536;2024-01-30T12:09:59;8.27;;;2.85;;
67776;SDS011;54576;52.020;5.536;2024-01-30T12:12:25;8.25;;;1.95;;
67776;SDS011;54576;52.020;5.536;2024-01-30T12:14:52;8.70;;;2.25;;
67776;SDS011;54576;52.020;5.536;2024-01-30T12:17:31;7.32;;;1.45;;
67776;SDS011;54576;52.020;5.536;2024-01-30T12:20:09;2.33;;;1.48;;
67776;SDS011;54576;52.020;5.536;2024-01-30T12:22:53;3.70;;;0.95;;
67776;SDS011;54576;52.020;5.536;2024-01-30T12:25:20;5.65;;;1.00;;
67776;SDS011;54576;52.020;5.536;2024-01-30T12:27:47;2.80;;;1.13;;
67776;SDS011;54576;52.020;5.536;2024-01-30T12:30:15;4.90;;;1.17;;
67776;SDS011;54576;52.020;5.536;2024-01-30T12:32:42;5.65;;;1.17;;
67776;SDS011;54576;52.020;5.536;2024-01-30T12:35:10;4.15;;;0.90;;
67776;SDS011;54576;52.020;5.536;2024-01-30T12:37:36;5.82;;;1.20;;
67776;SDS011;54576;52.020;5.536;2024-01-30T12:40:02;5.53;;;1.70;;
67776;SDS011;54576;52.020;5.536;2024-01-30T12:42:28;4.45;;;0.80;;
67776;SDS011;54576;52.020;5.536;2024-01-30T12:44:54;2.45;;;1.00;;
67776;SDS011;54576;52.020;5.536;2024-01-30T12:47:23;3.22;;;1.00;;
67776;SDS011;54576;52.020;5.536;2024-01-30T12:49:49;22.30;;;1.65;;
67776;SDS011;54576;52.020;5.536;2024-01-30T12:52:18;6.93;;;1.80;;
67776;SDS011;54576;52.020;5.536;2024-01-30T12:54:44;6.63;;;2.05;;
67776;SDS011;54576;52.020;5.536;2024-01-30T12:57:09;5.22;;;1.60;;
67776;SDS011;54576;52.020;5.536;2024-01-30T12:59:35;7.03;;;1.50;;
67776;SDS011;54576;52.020;5.536;2024-01-30T13:02:01;8.98;;;2.03;;
67776;SDS011;54576;52.020;5.536;2024-01-30T13:04:28;11.18;;;1.98;;
67776;SDS011;54576;52.020;5.536;2024-01-30T13:06:54;14.10;;;2.20;;
67776;SDS011;54576;52.020;5.536;2024-01-30T13:09:19;10.35;;;1.92;;
67776;SDS011;54576;52.020;5.536;2024-01-30T13:11:45;11.48;;;2.28;;
67776;SDS011;54576;52.020;5.536;2024-01-30T13:14:11;5.93;;;1.58;;
67776;SDS011;54576;52.020;5.536;2024-01-30T13:16:37;10.90;;;1.70;;
67776;SDS011;54576;52.020;5.536;2024-01-30T13:19:03;10.82;;;2.17;;
67776;SDS011;54576;52.020;5.536;2024-01-30T13:21:28;8.68;;;1.70;;
67776;SDS011;54576;52.020;5.536;2024-01-30T13:23:54;10.13;;;2.13;;
67776;SDS011;54576;52.020;5.536;2024-01-30T13:26:20;10.10;;;2.13;;
67776;SDS011;54576;52.020;5.536;2024-01-30T13:28:46;16.48;;;2.45;;
67776;SDS011;54576;52.020;5.536;2024-01-30T13:31:12;14.32;;;2.90;;
67776;SDS011;54576;52.020;5.536;2024-01-30T13:33:39;10.55;;;2.53;;
67776;SDS011;54576;52.020;5.536;2024-01-30T13:36:05;10.07;;;2.58;;
67776;SDS011;54576;52.020;5.536;2024-01-30T13:38:31;8.57;;;2.20;;
67776;SDS011;54576;52.020;5.536;2024-01-30T13:40:57;9.43;;;2.30;;
67776;SDS011;54576;52.020;5.536;2024-01-30T13:43:22;6.38;;;1.95;;
67776;SDS011;54576;52.020;5.536;2024-01-30T13:45:48;7.88;;;2.75;;
67776;SDS011;54576;52.020;5.536;2024-01-30T13:48:13;11.43;;;3.15;;
67776;SDS011;54576;52.020;5.536;2024-01-30T13:50:39;8.52;;;2.38;;
67776;SDS011;54576;52.020;5.536;2024-01-30T13:53:04;3.65;;;2.00;;
67776;SDS011;54576;52.020;5.536;2024-01-30T13:55:30;6.45;;;1.80;;
67776;SDS011;54576;52.020;5.536;2024-01-30T13:57:55;7.80;;;1.73;;
67776;SDS011;54576;52.020;5.536;2024-01-30T14:00:21;5.93;;;1.90;;
67776;SDS011;54576;52.020;5.536;2024-01-30T14:02:48;5.38;;;1.15;;
67776;SDS011;54576;52.020;5.536;2024-01-30T14:05:13;4.20;;;1.20;;
67776;SDS011;54576;52.020;5.536;2024-01-30T14:07:40;7.57;;;1.08;;
67776;SDS011;54576;52.020;5.536;2024-01-30T14:10:08;3.72;;;1.02;;
67776;SDS011;54576;52.020;5.536;2024-01-30T14:12:35;6.68;;;0.80;;
67776;SDS011;54576;52.020;5.536;2024-01-30T14:15:01;3.10;;;0.60;;
67776;SDS011;54576;52.020;5.536;2024-01-30T14:17:27;5.38;;;1.40;;
67776;SDS011;54576;52.020;5.536;2024-01-30T14:19:52;2.88;;;0.77;;
67776;SDS011;54576;52.020;5.536;2024-01-30T14:22:18;4.07;;;0.95;;
67776;SDS011;54576;52.020;5.536;2024-01-30T14:24:43;0.90;;;0.90;;
67776;SDS011;54576;52.020;5.536;2024-01-30T14:27:09;2.50;;;1.17;;
67776;SDS011;54576;52.020;5.536;2024-01-30T14:29:35;6.55;;;1.77;;
67776;SDS011;54576;52.020;5.536;2024-01-30T14:32:01;7.15;;;2.25;;
67776;SDS011;54576;52.020;5.536;2024-01-30T14:34:27;6.47;;;1.98;;
67776;SDS011;54576;52.020;5.536;2024-01-30T14:36:52;4.43;;;1.90;;
67776;SDS011;54576;52.020;5.536;2024-01-30T14:39:18;2.55;;;1.73;;
67776;SDS011;54576;52.020;5.536;2024-01-30T14:41:44;4.60;;;1.92;;
67776;SDS011;54576;52.020;5.536;2024-01-30T14:44:09;6.18;;;1.98;;
67776;SDS011;54576;52.020;5.536;2024-01-30T14:46:35;7.70;;;2.40;;
67776;SDS011;54576;52.020;5.536;2024-01-30T14:49:02;11.48;;;1.88;;